Terminal Aerodrome Forecast
Issued by NWS Jackson, MS

Home | Current Version | Previous Version | Text Only | Print | Product List | Glossary On
Versions: 1 2 3 4 5 6 7 8 9 10 11 12
000
FTUS44 KJAN 221120
TAFMEI
TAF
KMEI 221120Z 2212/2312 15006KT P6SM FEW060 OVC200
     FM221300 16020G30KT P6SM FEW070 OVC200
     FM221430 17015G20KT P6SM VCSH SCT030 OVC100
     FM221700 18010KT 5SM -RA BR VCTS BKN025 OVC040CB
     FM221900 29020G25KT 2SM TSRA BR BKN025CB OVC050
     FM222200 23010KT 4SM RA BR BKN020 OVC035
     FM230600 32008KT P6SM -RA OVC010=

USA.gov is the U.S. government's official web portal to all federal, state and local government web resources and services.